sensor_id;sensor_type;location;lat;lon;timestamp;pressure;altitude;pressure_sealevel;temperature;humidity
54512;BME280;40419;47.438;19.026;2023-03-01T00:01:42;100887.31;;;3.40;81.50
54512;BME280;40419;47.438;19.026;2023-03-01T00:04:12;100888.09;;;3.31;82.40
54512;BME280;40419;47.438;19.026;2023-03-01T00:06:42;100886.66;;;3.27;84.21
54512;BME280;40419;47.438;19.026;2023-03-01T00:09:08;100886.84;;;3.35;81.52
54512;BME280;40419;47.438;19.026;2023-03-01T00:11:38;100889.91;;;3.30;81.96
54512;BME280;40419;47.438;19.026;2023-03-01T00:14:04;100888.03;;;3.42;81.35
54512;BME280;40419;47.438;19.026;2023-03-01T00:16:35;100894.75;;;3.36;81.19
54512;BME280;40419;47.438;19.026;2023-03-01T00:19:04;100895.25;;;3.30;79.92
54512;BME280;40419;47.438;19.026;2023-03-01T00:21:30;100899.25;;;3.36;80.12
54512;BME280;40419;47.438;19.026;2023-03-01T00:23:56;100902.63;;;3.38;79.88
54512;BME280;40419;47.438;19.026;2023-03-01T00:26:26;100898.81;;;3.31;81.29
54512;BME280;40419;47.438;19.026;2023-03-01T00:28:53;100898.22;;;3.27;81.96
54512;BME280;40419;47.438;19.026;2023-03-01T00:31:24;100903.91;;;3.34;80.95
54512;BME280;40419;47.438;19.026;2023-03-01T00:33:56;100908.78;;;3.29;82.41
54512;BME280;40419;47.438;19.026;2023-03-01T00:36:22;100901.28;;;3.23;81.70
54512;BME280;40419;47.438;19.026;2023-03-01T00:38:48;100901.00;;;3.26;81.34
54512;BME280;40419;47.438;19.026;2023-03-01T00:41:17;100904.44;;;3.28;81.44
54512;BME280;40419;47.438;19.026;2023-03-01T00:43:45;100897.75;;;3.43;81.10
54512;BME280;40419;47.438;19.026;2023-03-01T00:46:14;100896.00;;;3.32;80.82
54512;BME280;40419;47.438;19.026;2023-03-01T00:48:44;100900.22;;;3.35;81.13
54512;BME280;40419;47.438;19.026;2023-03-01T00:51:11;100899.97;;;3.38;81.43
54512;BME280;40419;47.438;19.026;2023-03-01T00:53:40;100898.03;;;3.40;80.65
54512;BME280;40419;47.438;19.026;2023-03-01T00:56:12;100897.09;;;3.30;81.80
54512;BME280;40419;47.438;19.026;2023-03-01T00:58:41;100903.03;;;3.33;81.22
54512;BME280;40419;47.438;19.026;2023-03-01T01:01:16;100898.22;;;3.27;81.53
54512;BME280;40419;47.438;19.026;2023-03-01T01:03:44;100888.81;;;3.33;81.58
54512;BME280;40419;47.438;19.026;2023-03-01T01:06:14;100883.84;;;3.28;81.56
54512;BME280;40419;47.438;19.026;2023-03-01T01:08:45;100878.09;;;3.33;81.45
54512;BME280;40419;47.438;19.026;2023-03-01T01:11:11;100884.16;;;3.35;82.03
54512;BME280;40419;47.438;19.026;2023-03-01T01:13:38;100877.00;;;3.35;80.88
54512;BME280;40419;47.438;19.026;2023-03-01T01:16:11;100869.03;;;3.45;81.33
54512;BME280;40419;47.438;19.026;2023-03-01T01:18:39;100876.09;;;3.46;80.58
54512;BME280;40419;47.438;19.026;2023-03-01T01:21:12;100868.50;;;3.30;82.09
54512;BME280;40419;47.438;19.026;2023-03-01T01:23:41;100873.16;;;3.28;81.45
54512;BME280;40419;47.438;19.026;2023-03-01T01:26:21;100868.50;;;3.30;80.95
54512;BME280;40419;47.438;19.026;2023-03-01T01:28:49;100865.78;;;3.21;81.42
54512;BME280;40419;47.438;19.026;2023-03-01T01:31:15;100862.63;;;3.15;81.47
54512;BME280;40419;47.438;19.026;2023-03-01T01:33:44;100860.28;;;3.22;81.14
54512;BME280;40419;47.438;19.026;2023-03-01T01:36:10;100858.00;;;3.39;80.81
54512;BME280;40419;47.438;19.026;2023-03-01T01:38:37;100859.31;;;3.44;80.27
54512;BME280;40419;47.438;19.026;2023-03-01T01:41:13;100854.31;;;3.40;81.42
54512;BME280;40419;47.438;19.026;2023-03-01T01:43:45;100852.03;;;3.35;81.23
54512;BME280;40419;47.438;19.026;2023-03-01T01:46:30;100845.28;;;3.31;81.06
54512;BME280;40419;47.438;19.026;2023-03-01T01:49:04;100842.91;;;3.37;82.29
54512;BME280;40419;47.438;19.026;2023-03-01T01:51:39;100844.75;;;3.37;80.33
54512;BME280;40419;47.438;19.026;2023-03-01T01:54:29;100835.97;;;3.35;80.59
54512;BME280;40419;47.438;19.026;2023-03-01T01:57:03;100828.69;;;3.37;81.56
54512;BME280;40419;47.438;19.026;2023-03-01T01:59:34;100833.78;;;3.40;80.37
54512;BME280;40419;47.438;19.026;2023-03-01T02:02:03;100820.00;;;3.45;80.10
54512;BME280;40419;47.438;19.026;2023-03-01T02:04:30;100820.53;;;3.39;81.00
54512;BME280;40419;47.438;19.026;2023-03-01T02:07:13;100825.66;;;3.30;80.16
54512;BME280;40419;47.438;19.026;2023-03-01T02:09:45;100833.00;;;3.28;79.97
54512;BME280;40419;47.438;19.026;2023-03-01T02:12:15;100827.97;;;3.14;81.45
54512;BME280;40419;47.438;19.026;2023-03-01T02:14:44;100830.59;;;3.25;81.76
54512;BME280;40419;47.438;19.026;2023-03-01T02:17:16;100822.84;;;3.32;81.62
54512;BME280;40419;47.438;19.026;2023-03-01T02:22:40;100832.03;;;3.29;83.27
54512;BME280;40419;47.438;19.026;2023-03-01T02:30:15;100824.13;;;3.28;86.59
54512;BME280;40419;47.438;19.026;2023-03-01T02:32:46;100821.31;;;3.08;88.30
54512;BME280;40419;47.438;19.026;2023-03-01T02:35:14;100812.78;;;3.14;87.85
54512;BME280;40419;47.438;19.026;2023-03-01T02:37:42;100813.94;;;3.22;88.06
54512;BME280;40419;47.438;19.026;2023-03-01T02:40:11;100803.56;;;3.28;88.12
54512;BME280;40419;47.438;19.026;2023-03-01T02:42:47;100806.13;;;3.40;86.78
54512;BME280;40419;47.438;19.026;2023-03-01T02:45:14;100807.41;;;3.14;88.46
54512;BME280;40419;47.438;19.026;2023-03-01T02:47:42;100805.19;;;3.19;89.74
54512;BME280;40419;47.438;19.026;2023-03-01T02:53:14;100798.38;;;3.15;90.89
54512;BME280;40419;47.438;19.026;2023-03-01T02:55:42;100800.75;;;3.09;91.78
54512;BME280;40419;47.438;19.026;2023-03-01T02:58:08;100801.94;;;3.16;91.17
54512;BME280;40419;47.438;19.026;2023-03-01T03:00:39;100797.63;;;3.04;93.23
54512;BME280;40419;47.438;19.026;2023-03-01T03:03:20;100798.38;;;3.15;92.07
54512;BME280;40419;47.438;19.026;2023-03-01T03:05:48;100796.13;;;3.11;91.74
54512;BME280;40419;47.438;19.026;2023-03-01T03:08:16;100807.94;;;3.08;92.17
54512;BME280;40419;47.438;19.026;2023-03-01T03:10:52;100795.94;;;3.03;92.23
54512;BME280;40419;47.438;19.026;2023-03-01T03:13:18;100795.59;;;2.96;92.20
54512;BME280;40419;47.438;19.026;2023-03-01T03:15:46;100789.13;;;2.98;92.38
54512;BME280;40419;47.438;19.026;2023-03-01T03:18:16;100789.75;;;3.02;92.08
54512;BME280;40419;47.438;19.026;2023-03-01T03:20:42;100782.03;;;3.09;93.09
54512;BME280;40419;47.438;19.026;2023-03-01T03:23:11;100778.13;;;3.13;92.55
54512;BME280;40419;47.438;19.026;2023-03-01T03:25:39;100773.66;;;3.23;91.10
54512;BME280;40419;47.438;19.026;2023-03-01T03:28:10;100777.78;;;3.06;91.93
54512;BME280;40419;47.438;19.026;2023-03-01T03:30:39;100783.47;;;3.13;91.86
54512;BME280;40419;47.438;19.026;2023-03-01T03:33:06;100784.56;;;3.10;92.22
54512;BME280;40419;47.438;19.026;2023-03-01T03:35:54;100780.25;;;3.19;91.65
54512;BME280;40419;47.438;19.026;2023-03-01T03:38:21;100776.28;;;3.13;92.72
54512;BME280;40419;47.438;19.026;2023-03-01T03:40:50;100786.59;;;2.97;92.74
54512;BME280;40419;47.438;19.026;2023-03-01T03:43:20;100782.28;;;3.27;91.13
54512;BME280;40419;47.438;19.026;2023-03-01T03:45:49;100785.38;;;3.01;92.07
54512;BME280;40419;47.438;19.026;2023-03-01T03:48:16;100785.28;;;3.12;92.49
54512;BME280;40419;47.438;19.026;2023-03-01T03:50:48;100788.56;;;3.16;92.14
54512;BME280;40419;47.438;19.026;2023-03-01T03:53:14;100786.59;;;3.18;91.44
54512;BME280;40419;47.438;19.026;2023-03-01T03:55:42;100786.19;;;3.23;91.67
54512;BME280;40419;47.438;19.026;2023-03-01T03:58:12;100777.97;;;3.14;92.05
54512;BME280;40419;47.438;19.026;2023-03-01T04:00:40;100783.25;;;3.26;91.39
54512;BME280;40419;47.438;19.026;2023-03-01T04:03:07;100782.34;;;3.15;91.60
54512;BME280;40419;47.438;19.026;2023-03-01T04:05:33;100777.75;;;3.27;91.63
54512;BME280;40419;47.438;19.026;2023-03-01T04:08:03;100780.84;;;3.23;91.80
54512;BME280;40419;47.438;19.026;2023-03-01T04:10:30;100784.88;;;3.17;91.69
54512;BME280;40419;47.438;19.026;2023-03-01T04:12:58;100781.47;;;3.36;88.85
54512;BME280;40419;47.438;19.026;2023-03-01T04:15:26;100780.31;;;3.08;88.77
54512;BME280;40419;47.438;19.026;2023-03-01T04:17:54;100782.88;;;3.09;88.30
54512;BME280;40419;47.438;19.026;2023-03-01T04:20:25;100779.47;;;3.07;88.49
54512;BME280;40419;47.438;19.026;2023-03-01T04:23:13;100784.75;;;2.97;88.94
54512;BME280;40419;47.438;19.026;2023-03-01T04:25:52;100782.09;;;2.97;88.48
54512;BME280;40419;47.438;19.026;2023-03-01T04:28:34;100786.72;;;2.95;88.47
54512;BME280;40419;47.438;19.026;2023-03-01T04:31:07;100792.16;;;3.05;87.52
54512;BME280;40419;47.438;19.026;2023-03-01T04:33:42;100797.94;;;3.10;87.39
54512;BME280;40419;47.438;19.026;2023-03-01T04:36:15;100782.81;;;2.99;88.20
54512;BME280;40419;47.438;19.026;2023-03-01T04:38:40;100785.16;;;2.93;88.31
54512;BME280;40419;47.438;19.026;2023-03-01T04:41:09;100786.06;;;3.03;88.44
54512;BME280;40419;47.438;19.026;2023-03-01T04:43:35;100783.53;;;3.01;88.56
54512;BME280;40419;47.438;19.026;2023-03-01T04:46:02;100786.94;;;3.04;88.83
54512;BME280;40419;47.438;19.026;2023-03-01T04:48:29;100772.44;;;3.06;88.63
54512;BME280;40419;47.438;19.026;2023-03-01T04:50:57;100782.69;;;3.01;89.22
54512;BME280;40419;47.438;19.026;2023-03-01T04:53:26;100768.25;;;3.13;87.90
54512;BME280;40419;47.438;19.026;2023-03-01T04:55:54;100769.72;;;2.96;89.89
54512;BME280;40419;47.438;19.026;2023-03-01T04:58:26;100766.41;;;2.93;90.22
54512;BME280;40419;47.438;19.026;2023-03-01T05:00:53;100769.03;;;3.04;89.13
54512;BME280;40419;47.438;19.026;2023-03-01T05:03:19;100770.50;;;3.08;88.45
54512;BME280;40419;47.438;19.026;2023-03-01T05:05:52;100771.28;;;2.99;88.94
54512;BME280;40419;47.438;19.026;2023-03-01T05:08:20;100780.44;;;3.06;88.53
54512;BME280;40419;47.438;19.026;2023-03-01T05:10:49;100769.72;;;2.96;89.86
54512;BME280;40419;47.438;19.026;2023-03-01T05:13:15;100772.25;;;2.98;89.32
54512;BME280;40419;47.438;19.026;2023-03-01T05:15:56;100779.47;;;3.07;88.64
54512;BME280;40419;47.438;19.026;2023-03-01T05:18:28;100780.97;;;3.00;89.00
54512;BME280;40419;47.438;19.026;2023-03-01T05:21:11;100776.94;;;3.06;89.46
54512;BME280;40419;47.438;19.026;2023-03-01T05:23:37;100786.97;;;3.13;88.43
54512;BME280;40419;47.438;19.026;2023-03-01T05:26:06;100783.91;;;2.97;88.53
54512;BME280;40419;47.438;19.026;2023-03-01T05:28:35;100780.81;;;2.92;89.23
54512;BME280;40419;47.438;19.026;2023-03-01T05:31:03;100773.03;;;2.89;89.48
54512;BME280;40419;47.438;19.026;2023-03-01T05:33:43;100770.53;;;2.97;88.92
54512;BME280;40419;47.438;19.026;2023-03-01T05:36:11;100780.84;;;3.23;88.46
54512;BME280;40419;47.438;19.026;2023-03-01T05:38:39;100781.72;;;3.02;89.17
54512;BME280;40419;47.438;19.026;2023-03-01T05:41:14;100772.56;;;3.05;88.02
54512;BME280;40419;47.438;19.026;2023-03-01T05:43:40;100775.38;;;3.03;88.51
54512;BME280;40419;47.438;19.026;2023-03-01T05:46:13;100783.47;;;3.13;87.67
54512;BME280;40419;47.438;19.026;2023-03-01T05:48:40;100782.97;;;3.29;87.26
54512;BME280;40419;47.438;19.026;2023-03-01T05:51:08;100776.28;;;3.13;87.39
54512;BME280;40419;47.438;19.026;2023-03-01T05:53:39;100783.56;;;3.32;86.43
54512;BME280;40419;47.438;19.026;2023-03-01T05:56:07;100778.69;;;3.16;87.53
54512;BME280;40419;47.438;19.026;2023-03-01T05:58:35;100784.59;;;3.20;88.05
54512;BME280;40419;47.438;19.026;2023-03-01T06:01:00;100795.09;;;3.23;88.13
54512;BME280;40419;47.438;19.026;2023-03-01T06:03:28;100788.53;;;3.37;86.63
54512;BME280;40419;47.438;19.026;2023-03-01T06:05:59;100788.84;;;3.23;87.18
54512;BME280;40419;47.438;19.026;2023-03-01T06:08:27;100792.03;;;3.37;87.00
54512;BME280;40419;47.438;19.026;2023-03-01T06:10:53;100801.84;;;3.27;87.82
54512;BME280;40419;47.438;19.026;2023-03-01T06:13:22;100789.78;;;3.43;86.34
54512;BME280;40419;47.438;19.026;2023-03-01T06:15:48;100791.28;;;3.26;88.18
54512;BME280;40419;47.438;19.026;2023-03-01T06:18:14;100792.28;;;3.25;88.48
54512;BME280;40419;47.438;19.026;2023-03-01T06:20:45;100795.53;;;3.28;88.19
54512;BME280;40419;47.438;19.026;2023-03-01T06:23:17;100798.47;;;3.25;88.17
54512;BME280;40419;47.438;19.026;2023-03-01T06:25:44;100796.72;;;3.45;88.14
54512;BME280;40419;47.438;19.026;2023-03-01T06:28:12;100798.50;;;3.35;87.83
54512;BME280;40419;47.438;19.026;2023-03-01T06:30:40;100795.09;;;3.23;88.69
54512;BME280;40419;47.438;19.026;2023-03-01T06:33:10;100798.28;;;3.48;87.91
54512;BME280;40419;47.438;19.026;2023-03-01T06:35:40;100808.81;;;3.40;88.60
54512;BME280;40419;47.438;19.026;2023-03-01T06:38:09;100811.34;;;3.41;88.59
54512;BME280;40419;47.438;19.026;2023-03-01T06:40:34;100822.97;;;3.51;87.89
54512;BME280;40419;47.438;19.026;2023-03-01T06:43:01;100807.94;;;3.29;88.11
54512;BME280;40419;47.438;19.026;2023-03-01T06:45:29;100816.28;;;3.36;88.09
54512;BME280;40419;47.438;19.026;2023-03-01T06:48:01;100816.56;;;3.43;86.87
54512;BME280;40419;47.438;19.026;2023-03-01T06:50:30;100813.78;;;3.44;86.65
54512;BME280;40419;47.438;19.026;2023-03-01T06:52:56;100805.09;;;3.52;87.61
54512;BME280;40419;47.438;19.026;2023-03-01T06:55:22;100821.28;;;3.50;85.98
54512;BME280;40419;47.438;19.026;2023-03-01T06:57:54;100818.75;;;3.49;86.38
54512;BME280;40419;47.438;19.026;2023-03-01T07:00:24;100815.03;;;3.71;84.30
54512;BME280;40419;47.438;19.026;2023-03-01T07:02:54;100824.81;;;3.51;85.68
54512;BME280;40419;47.438;19.026;2023-03-01T07:05:20;100824.94;;;3.49;86.42
54512;BME280;40419;47.438;19.026;2023-03-01T07:07:48;100817.94;;;3.58;86.58
54512;BME280;40419;47.438;19.026;2023-03-01T07:10:16;100806.22;;;3.59;86.01
54512;BME280;40419;47.438;19.026;2023-03-01T07:12:41;100804.91;;;3.75;84.63
54512;BME280;40419;47.438;19.026;2023-03-01T07:15:12;100811.91;;;3.66;85.47
54512;BME280;40419;47.438;19.026;2023-03-01T07:17:37;100814.75;;;3.74;85.11
54512;BME280;40419;47.438;19.026;2023-03-01T07:20:03;100810.84;;;3.88;85.41
54512;BME280;40419;47.438;19.026;2023-03-01T07:22:31;100814.94;;;3.82;83.34
54512;BME280;40419;47.438;19.026;2023-03-01T07:24:57;100810.28;;;3.84;82.86
54512;BME280;40419;47.438;19.026;2023-03-01T07:27:22;100813.22;;;3.81;83.30
54512;BME280;40419;47.438;19.026;2023-03-01T07:29:48;100815.28;;;3.99;82.80
54512;BME280;40419;47.438;19.026;2023-03-01T07:32:14;100809.72;;;3.90;82.75
54512;BME280;40419;47.438;19.026;2023-03-01T07:34:39;100817.09;;;3.98;84.16
54512;BME280;40419;47.438;19.026;2023-03-01T07:37:07;100812.31;;;4.12;81.14
54512;BME280;40419;47.438;19.026;2023-03-01T07:39:35;100814.53;;;3.97;82.74
54512;BME280;40419;47.438;19.026;2023-03-01T07:42:00;100808.06;;;3.99;80.66
54512;BME280;40419;47.438;19.026;2023-03-01T07:44:31;100817.13;;;4.08;82.15
54512;BME280;40419;47.438;19.026;2023-03-01T07:46:56;100815.88;;;4.32;81.70
54512;BME280;40419;47.438;19.026;2023-03-01T07:49:23;100799.97;;;4.40;80.52
54512;BME280;40419;47.438;19.026;2023-03-01T07:51:54;100810.84;;;4.38;79.85
54512;BME280;40419;47.438;19.026;2023-03-01T07:54:19;100800.66;;;4.42;79.65
54512;BME280;40419;47.438;19.026;2023-03-01T07:56:45;100805.59;;;4.37;78.28
54512;BME280;40419;47.438;19.026;2023-03-01T07:59:10;100790.94;;;4.41;78.35
54512;BME280;40419;47.438;19.026;2023-03-01T08:01:38;100791.91;;;4.50;78.12
54512;BME280;40419;47.438;19.026;2023-03-01T08:04:07;100792.78;;;4.50;77.54
54512;BME280;40419;47.438;19.026;2023-03-01T08:06:34;100791.22;;;4.57;78.90
54512;BME280;40419;47.438;19.026;2023-03-01T08:09:00;100799.13;;;4.69;76.97
54512;BME280;40419;47.438;19.026;2023-03-01T08:11:25;100794.63;;;4.59;76.98
54512;BME280;40419;47.438;19.026;2023-03-01T08:13:53;100799.41;;;4.75;74.91
54512;BME280;40419;47.438;19.026;2023-03-01T08:16:19;100786.97;;;4.65;75.06
54512;BME280;40419;47.438;19.026;2023-03-01T08:18:49;100798.56;;;4.75;74.85
54512;BME280;40419;47.438;19.026;2023-03-01T08:21:17;100793.50;;;4.82;75.20
54512;BME280;40419;47.438;19.026;2023-03-01T08:23:45;100788.94;;;4.92;77.65
54512;BME280;40419;47.438;19.026;2023-03-01T08:26:19;100785.81;;;4.96;75.73
54512;BME280;40419;47.438;19.026;2023-03-01T08:28:46;100781.84;;;5.01;77.46
54512;BME280;40419;47.438;19.026;2023-03-01T08:31:19;100787.38;;;5.09;75.16
54512;BME280;40419;47.438;19.026;2023-03-01T08:33:52;100779.94;;;4.83;74.56
54512;BME280;40419;47.438;19.026;2023-03-01T08:36:26;100774.50;;;5.03;76.00
54512;BME280;40419;47.438;19.026;2023-03-01T08:38:59;100775.91;;;5.17;73.93
54512;BME280;40419;47.438;19.026;2023-03-01T08:41:27;100775.63;;;5.10;75.47
54512;BME280;40419;47.438;19.026;2023-03-01T08:43:58;100783.72;;;5.00;75.09
54512;BME280;40419;47.438;19.026;2023-03-01T08:46:32;100777.13;;;5.22;73.72
54512;BME280;40419;47.438;19.026;2023-03-01T08:48:58;100780.31;;;5.08;73.95
54512;BME280;40419;47.438;19.026;2023-03-01T08:51:24;100775.66;;;5.00;74.98
54512;BME280;40419;47.438;19.026;2023-03-01T08:53:50;100763.31;;;5.17;73.60
54512;BME280;40419;47.438;19.026;2023-03-01T08:56:18;100769.97;;;5.13;75.29
54512;BME280;40419;47.438;19.026;2023-03-01T08:58:48;100758.41;;;5.03;74.58
54512;BME280;40419;47.438;19.026;2023-03-01T09:01:18;100762.53;;;5.44;74.24
54512;BME280;40419;47.438;19.026;2023-03-01T09:03:46;100756.25;;;5.16;74.95
54512;BME280;40419;47.438;19.026;2023-03-01T09:06:13;100759.88;;;5.35;74.18
54512;BME280;40419;47.438;19.026;2023-03-01T09:08:44;100758.03;;;5.73;73.09
54512;BME280;40419;47.438;19.026;2023-03-01T09:11:13;100750.56;;;5.66;72.32
54512;BME280;40419;47.438;19.026;2023-03-01T09:13:40;100744.28;;;5.76;72.65
54512;BME280;40419;47.438;19.026;2023-03-01T09:16:08;100743.97;;;5.79;73.32
54512;BME280;40419;47.438;19.026;2023-03-01T09:18:36;100744.47;;;5.92;72.12
54512;BME280;40419;47.438;19.026;2023-03-01T09:23:35;100731.41;;;5.52;73.19
54512;BME280;40419;47.438;19.026;2023-03-01T09:26:08;100723.97;;;5.91;73.67
54512;BME280;40419;47.438;19.026;2023-03-01T09:28:39;100732.53;;;6.05;72.66
54512;BME280;40419;47.438;19.026;2023-03-01T09:31:12;100727.84;;;6.07;74.56
54512;BME280;40419;47.438;19.026;2023-03-01T09:33:39;100719.00;;;6.32;72.39
54512;BME280;40419;47.438;19.026;2023-03-01T09:36:10;100716.94;;;6.26;70.84
54512;BME280;40419;47.438;19.026;2023-03-01T09:38:36;100712.94;;;6.30;71.47
54512;BME280;40419;47.438;19.026;2023-03-01T09:41:02;100712.00;;;6.03;71.50
54512;BME280;40419;47.438;19.026;2023-03-01T09:43:51;100708.41;;;6.13;71.97
54512;BME280;40419;47.438;19.026;2023-03-01T09:46:22;100697.16;;;6.53;70.23
54512;BME280;40419;47.438;19.026;2023-03-01T09:48:56;100704.41;;;6.53;70.26
54512;BME280;40419;47.438;19.026;2023-03-01T09:51:27;100697.34;;;6.34;71.27
54512;BME280;40419;47.438;19.026;2023-03-01T09:53:55;100694.34;;;6.37;71.93
54512;BME280;40419;47.438;19.026;2023-03-01T09:56:30;100699.13;;;6.43;70.31
54512;BME280;40419;47.438;19.026;2023-03-01T09:59:21;100690.78;;;6.54;71.83
54512;BME280;40419;47.438;19.026;2023-03-01T10:04:44;100702.72;;;6.52;71.08
54512;BME280;40419;47.438;19.026;2023-03-01T10:09:43;100694.72;;;6.86;68.79
54512;BME280;40419;47.438;19.026;2023-03-01T10:12:16;100683.84;;;6.96;71.14
54512;BME280;40419;47.438;19.026;2023-03-01T10:15:11;100685.22;;;7.00;69.59
54512;BME280;40419;47.438;19.026;2023-03-01T10:17:46;100678.81;;;7.01;69.19
54512;BME280;40419;47.438;19.026;2023-03-01T10:20:30;100676.78;;;6.95;69.21
54512;BME280;40419;47.438;19.026;2023-03-01T10:23:03;100671.75;;;7.00;68.93
54512;BME280;40419;47.438;19.026;2023-03-01T10:28:17;100670.44;;;7.04;69.26
54512;BME280;40419;47.438;19.026;2023-03-01T10:30:48;100660.94;;;6.92;68.45
54512;BME280;40419;47.438;19.026;2023-03-01T10:33:23;100651.69;;;7.29;67.58
54512;BME280;40419;47.438;19.026;2023-03-01T10:35:52;100653.13;;;7.15;67.99
54512;BME280;40419;47.438;19.026;2023-03-01T10:38:19;100656.16;;;7.12;67.09
54512;BME280;40419;47.438;19.026;2023-03-01T10:40:58;100648.88;;;7.39;66.92
54512;BME280;40419;47.438;19.026;2023-03-01T10:43:40;100653.94;;;7.50;66.35
54512;BME280;40419;47.438;19.026;2023-03-01T10:46:36;100642.00;;;7.44;68.24
54512;BME280;40419;47.438;19.026;2023-03-01T10:49:23;100646.03;;;7.49;65.85
54512;BME280;40419;47.438;19.026;2023-03-01T10:52:17;100630.75;;;7.15;66.63
54512;BME280;40419;47.438;19.026;2023-03-01T10:54:59;100624.88;;;7.19;67.06
54512;BME280;40419;47.438;19.026;2023-03-01T10:57:36;100616.19;;;7.34;67.13
54512;BME280;40419;47.438;19.026;2023-03-01T11:00:25;100611.25;;;7.21;68.22
54512;BME280;40419;47.438;19.026;2023-03-01T11:05:24;100606.88;;;8.04;65.94
54512;BME280;40419;47.438;19.026;2023-03-01T11:07:57;100606.38;;;8.16;66.32
54512;BME280;40419;47.438;19.026;2023-03-01T11:10:28;100605.19;;;8.36;63.53
54512;BME280;40419;47.438;19.026;2023-03-01T11:13:17;100601.16;;;8.23;62.57
54512;BME280;40419;47.438;19.026;2023-03-01T11:15:58;100595.06;;;8.21;61.61
54512;BME280;40419;47.438;19.026;2023-03-01T11:18:25;100600.47;;;8.29;62.65
54512;BME280;40419;47.438;19.026;2023-03-01T11:20:55;100593.06;;;8.56;62.91
54512;BME280;40419;47.438;19.026;2023-03-01T11:23:22;100599.97;;;8.34;61.14
54512;BME280;40419;47.438;19.026;2023-03-01T11:25:54;100593.41;;;8.45;60.98
54512;BME280;40419;47.438;19.026;2023-03-01T11:28:23;100584.13;;;8.47;61.56
54512;BME280;40419;47.438;19.026;2023-03-01T11:30:54;100586.97;;;8.62;61.92
54512;BME280;40419;47.438;19.026;2023-03-01T11:39:04;100588.59;;;8.88;61.76
54512;BME280;40419;47.438;19.026;2023-03-01T11:41:35;100586.53;;;8.98;62.53
54512;BME280;40419;47.438;19.026;2023-03-01T11:44:16;100580.91;;;9.08;60.21
54512;BME280;40419;47.438;19.026;2023-03-01T11:50:32;100578.25;;;9.00;60.42
54512;BME280;40419;47.438;19.026;2023-03-01T12:04:10;100570.97;;;9.00;60.26
54512;BME280;40419;47.438;19.026;2023-03-01T12:14:44;100549.22;;;9.25;60.73
54512;BME280;40419;47.438;19.026;2023-03-01T12:28:49;100528.66;;;9.47;60.22
54512;BME280;40419;47.438;19.026;2023-03-01T12:34:15;100515.81;;;9.49;61.16
54512;BME280;40419;47.438;19.026;2023-03-01T12:39:55;100524.66;;;9.12;61.91
54512;BME280;40419;47.438;19.026;2023-03-01T12:51:00;100515.16;;;9.24;61.49
54512;BME280;40419;47.438;19.026;2023-03-01T12:53:46;100515.72;;;9.11;61.67
54512;BME280;40419;47.438;19.026;2023-03-01T12:56:16;100517.00;;;9.23;61.87
54512;BME280;40419;47.438;19.026;2023-03-01T12:59:01;100518.03;;;9.22;61.56
54512;BME280;40419;47.438;19.026;2023-03-01T13:12:14;100496.47;;;9.37;60.50
54512;BME280;40419;47.438;19.026;2023-03-01T13:14:54;100499.47;;;9.19;60.98
54512;BME280;40419;47.438;19.026;2023-03-01T13:17:31;100496.78;;;9.19;62.58
54512;BME280;40419;47.438;19.026;2023-03-01T13:19:59;100496.06;;;9.26;60.81
54512;BME280;40419;47.438;19.026;2023-03-01T13:22:32;100481.31;;;9.28;61.56
54512;BME280;40419;47.438;19.026;2023-03-01T13:25:11;100478.22;;;9.16;63.20
54512;BME280;40419;47.438;19.026;2023-03-01T13:27:38;100479.88;;;9.17;61.90
54512;BME280;40419;47.438;19.026;2023-03-01T13:30:12;100471.00;;;9.32;61.54
54512;BME280;40419;47.438;19.026;2023-03-01T13:32:50;100483.00;;;9.06;62.79
54512;BME280;40419;47.438;19.026;2023-03-01T13:37:44;100469.94;;;9.41;61.72
54512;BME280;40419;47.438;19.026;2023-03-01T13:42:49;100468.00;;;9.50;61.71
54512;BME280;40419;47.438;19.026;2023-03-01T13:45:40;100466.06;;;9.12;62.71
54512;BME280;40419;47.438;19.026;2023-03-01T13:48:24;100458.81;;;9.13;63.20
54512;BME280;40419;47.438;19.026;2023-03-01T13:51:04;100456.94;;;9.13;62.53
54512;BME280;40419;47.438;19.026;2023-03-01T13:53:41;100450.59;;;9.06;62.70
54512;BME280;40419;47.438;19.026;2023-03-01T13:56:22;100443.91;;;8.94;63.09
54512;BME280;40419;47.438;19.026;2023-03-01T14:03:53;100447.56;;;9.01;62.16
54512;BME280;40419;47.438;19.026;2023-03-01T14:06:25;100441.31;;;9.00;62.69
54512;BME280;40419;47.438;19.026;2023-03-01T14:09:18;100430.25;;;9.18;61.70
54512;BME280;40419;47.438;19.026;2023-03-01T14:17:47;100425.19;;;9.15;62.27
54512;BME280;40419;47.438;19.026;2023-03-01T14:20:23;100422.91;;;9.27;61.79
54512;BME280;40419;47.438;19.026;2023-03-01T14:22:57;100428.69;;;9.24;61.76
54512;BME280;40419;47.438;19.026;2023-03-01T14:25:36;100416.47;;;9.05;62.30
54512;BME280;40419;47.438;19.026;2023-03-01T14:28:17;100411.69;;;9.15;61.43
54512;BME280;40419;47.438;19.026;2023-03-01T14:30:51;100407.34;;;9.29;60.80
54512;BME280;40419;47.438;19.026;2023-03-01T14:33:26;100400.63;;;9.25;61.62
54512;BME280;40419;47.438;19.026;2023-03-01T14:36:01;100401.34;;;9.19;62.79
54512;BME280;40419;47.438;19.026;2023-03-01T14:41:05;100391.50;;;9.26;61.16
54512;BME280;40419;47.438;19.026;2023-03-01T14:43:31;100384.84;;;9.14;61.50
54512;BME280;40419;47.438;19.026;2023-03-01T14:45:57;100400.03;;;9.38;61.28
54512;BME280;40419;47.438;19.026;2023-03-01T14:48:27;100381.53;;;9.27;61.35
54512;BME280;40419;47.438;19.026;2023-03-01T14:50:56;100392.03;;;9.21;61.69
54512;BME280;40419;47.438;19.026;2023-03-01T14:53:28;100390.66;;;9.26;61.66
54512;BME280;40419;47.438;19.026;2023-03-01T14:56:01;100391.88;;;9.23;61.29
54512;BME280;40419;47.438;19.026;2023-03-01T14:58:34;100382.81;;;9.16;62.18